METAR Data
IDs: Format: Raw Decoded Include TAF

Data at: 2232 UTC 24 Mar 2019

KMFE 242153Z 15014KT 10SM OVC039 28/20 A2997 RMK AO2 PK WND 16026/2055 SLP146 T02780200 $
KMFE 242053Z 16014G22KT 10SM SCT037 30/21 A2997 RMK AO2 SLP148 T03000206 56024 $
KMFE 241953Z 14016G23KT 10SM BKN032 29/21 A2999 RMK AO2 SLP153 T02940206 $
KMFE 241853Z 15017G22KT 10SM BKN033 30/21 A3002 RMK AO2 SLP163 T03000206 $
KMFE 241808Z 14015G23KT 10SM BKN031 29/21 A3004 RMK AO2 T02890206 $
KMFE 241753Z 15016KT 10SM OVC029 28/21 A3005 RMK AO2 SLP172 T02780206 10278 20211 58006 $
KMFE 241653Z 14015KT 10SM OVC024 26/21 A3006 RMK AO2 SLP179 T02610206 $
KMFE 241553Z 16013KT 9SM OVC018 25/21 A3008 RMK AO2 SLP182 T02500206 $
KMFE 241519Z 15015G20KT 8SM OVC016 24/21 A3007 RMK AO2 T02390206 $
KMFE 241511Z 16014G21KT 8SM OVC014 24/21 A3007 RMK AO2 T02440206 $
KMFE 241504Z 15015G21KT 8SM OVC015 24/21 A3007 RMK AO2 T02390206 $
KMFE 241453Z 16013KT 8SM OVC014 23/21 A3006 RMK AO2 SLP179 T02330206 51020 $
KMFE 241353Z 14009KT 7SM FEW019 23/21 A3004 RMK AO2 SLP172 T02280206
KMFE 241253Z 15009KT 7SM OVC016 22/21 A3003 RMK AO2 SLP167 T02170206
KMFE 241237Z 15011KT 8SM FEW011 OVC018 22/21 A3003 RMK AO2 T02170206
KMFE 241220Z 15011KT 10SM SCT018 21/21 A3002 RMK AO2 T02110206
KMFE 241213Z 15011KT 10SM FEW011 BKN018 21/21 A3002 RMK AO2 T02110206
KMFE 241153Z 14011KT 10SM SCT018 21/20 A3001 RMK AO2 SLP159 T02110200 10211 20200 55000
KMFE 241053Z 15012KT 10SM BKN009 OVC019 21/21 A3000 RMK AO2 CIG 006V012 SLP155 T02110206
KMFE 241017Z AUTO 15010KT 9SM BKN008 BKN012 BKN020 21/21 A2999 RMK AO2 T02110206
KMFE 241007Z AUTO 15009KT 9SM SCT007 21/21 A2999 RMK AO2 T02060206
KMFE 240953Z AUTO 14010KT 9SM SCT023 21/20 A2999 RMK AO2 SLP153 T02060200
KMFE 240902Z AUTO 15009KT 9SM FEW008 OVC022 21/20 A3000 RMK AO2 T02060200
KMFE 240853Z AUTO 15008KT 9SM OVC022 21/20 A3001 RMK AO2 SLP159 T02060200 56017
KMFE 240833Z AUTO 15009KT 8SM BKN021 20/20 A3001 RMK AO2 T02000200
KMFE 240753Z AUTO 15007KT 8SM FEW019 20/19 A3002 RMK AO2 SLP164 T02000194
KMFE 240653Z AUTO 15008KT 9SM CLR 20/19 A3004 RMK AO2 SLP170 T02000194
KMFE 240553Z AUTO 14008KT 10SM CLR 21/20 A3006 RMK AO2 SLP176 T02110200 10256 20206 402890200 50000
KMFE 240453Z 14007KT 10SM CLR 21/19 A3007 RMK AO2 SLP180 T02060194
KMFE 240353Z 13012KT 10SM CLR 22/19 A3005 RMK AO2 SLP173 T02170194
KMFE 240253Z 13010KT 10SM CLR 22/19 A3006 RMK AO2 SLP176 T02220194 53021
KMFE 240153Z 13010KT 10SM CLR 23/19 A3003 RMK AO2 SLP168 T02280189
KMFE 240053Z 13013KT 10SM CLR 24/19 A3001 RMK AO2 SLP159 T02390194
KMFE 232353Z 13018KT 10SM OVC060 26/19 A2999 RMK AO2 SLP155 T02560194 10289 20256 53005
KMFE 232253Z 14018G23KT 10SM BKN034 OVC060 26/19 A2998 RMK AO2 SLP149 T02610194
KMFE 232153Z 14015G22KT 10SM SCT036 OVC060 28/19 A2996 RMK AO2 SLP144 T02780189
KMFE 232053Z 16014KT 10SM FEW034 OVC055 28/19 A2998 RMK AO2 SLP150 T02780194 56019
KMFE 231953Z 15018KT 10SM FEW035 OVC060 29/19 A2999 RMK AO2 SLP152 T02890194
KMFE 231853Z 15012KT 10SM FEW034 SCT045 OVC055 27/19 A3002 RMK AO2 SLP163 T02670194
KMFE 231753Z 16017KT 10SM FEW029 BKN045 26/19 A3004 RMK AO2 SLP169 T02610194 10272 20200 58007
KMFE 231700Z 15019KT 10SM SCT023 BKN035 OVC048 26/20 A3005 RMK AO2 T02560200
KMFE 231653Z 15016G22KT 10SM BKN020 BKN026 OVC048 26/20 A3005 RMK AO2 SLP174 T02560200
KMFE 231553Z 17010G19KT 10SM BKN020 BKN026 OVC048 23/19 A3006 RMK AO2 SLP177 T02330194
KMFE 231453Z 15009KT 10SM OVC017 23/19 A3006 RMK AO2 SLP176 T02280194 53015
KMFE 231430Z 14009KT 10SM BKN015 BKN023 22/19 A3005 RMK AO2 T02220194
KMFE 231402Z 13010KT 10SM SCT026 22/19 A3003 RMK AO2 T02170189
KMFE 231353Z 12011KT 10SM BKN024 21/19 A3003 RMK AO2 SLP166 T02110189
KMFE 231313Z 12010KT 10SM BKN025 OVC040 21/18 A3002 RMK AO2 T02060183
KMFE 231253Z 11012KT 10SM FEW020 FEW027 OVC039 21/18 A3001 RMK AO2 SLP161 T02060183
KMFE 231249Z 11011KT 10SM FEW020 FEW027 OVC039 21/18 A3001 RMK AO2
KMFE 231153Z 09005KT 10SM BKN024 OVC030 21/18 A3002 RMK AO2 SLP163 T02060183 10217 20200 53003
KMFE 231125Z 12005KT 10SM BKN024 BKN030 OVC037 20/18 A3001 RMK AO2 T02000183
KMFE 231053Z 13009KT 10SM BKN032 20/18 A3000 RMK AO2 SLP156 T02000183
KMFE 231037Z AUTO 13010KT 10SM BKN030 21/18 A2999 RMK AO2 T02060183